sensor_id;sensor_type;location;lat;lon;timestamp;P1;durP1;ratioP1;P2;durP2;ratioP2
5460;SDS011;2753;49.196;8.286;2023-01-04T00:01:02;20.70;;;13.83;;
5460;SDS011;2753;49.196;8.286;2023-01-04T00:03:29;19.07;;;12.70;;
5460;SDS011;2753;49.196;8.286;2023-01-04T00:05:59;22.70;;;13.50;;
5460;SDS011;2753;49.196;8.286;2023-01-04T00:08:26;15.73;;;12.00;;
5460;SDS011;2753;49.196;8.286;2023-01-04T00:10:52;22.93;;;13.63;;
5460;SDS011;2753;49.196;8.286;2023-01-04T00:13:24;18.50;;;13.67;;
5460;SDS011;2753;49.196;8.286;2023-01-04T00:15:50;23.00;;;13.37;;
5460;SDS011;2753;49.196;8.286;2023-01-04T00:18:15;20.97;;;13.97;;
5460;SDS011;2753;49.196;8.286;2023-01-04T00:20:41;20.47;;;14.30;;
5460;SDS011;2753;49.196;8.286;2023-01-04T00:23:06;17.53;;;12.40;;
5460;SDS011;2753;49.196;8.286;2023-01-04T00:25:32;28.60;;;15.10;;
5460;SDS011;2753;49.196;8.286;2023-01-04T00:27:58;24.27;;;14.57;;
5460;SDS011;2753;49.196;8.286;2023-01-04T00:30:23;22.37;;;14.33;;
5460;SDS011;2753;49.196;8.286;2023-01-04T00:32:49;17.23;;;12.37;;
5460;SDS011;2753;49.196;8.286;2023-01-04T00:35:15;16.00;;;12.50;;
5460;SDS011;2753;49.196;8.286;2023-01-04T00:37:41;24.83;;;14.73;;
5460;SDS011;2753;49.196;8.286;2023-01-04T00:40:06;29.70;;;13.20;;
5460;SDS011;2753;49.196;8.286;2023-01-04T00:42:33;26.97;;;14.20;;
5460;SDS011;2753;49.196;8.286;2023-01-04T00:44:58;22.40;;;14.90;;
5460;SDS011;2753;49.196;8.286;2023-01-04T00:47:24;21.40;;;15.03;;
5460;SDS011;2753;49.196;8.286;2023-01-04T00:49:49;22.03;;;14.90;;
5460;SDS011;2753;49.196;8.286;2023-01-04T00:52:15;24.07;;;14.43;;
5460;SDS011;2753;49.196;8.286;2023-01-04T00:54:41;24.80;;;15.33;;
5460;SDS011;2753;49.196;8.286;2023-01-04T00:57:06;23.17;;;14.50;;
5460;SDS011;2753;49.196;8.286;2023-01-04T00:59:33;24.90;;;15.13;;
5460;SDS011;2753;49.196;8.286;2023-01-04T01:01:58;23.00;;;14.30;;
5460;SDS011;2753;49.196;8.286;2023-01-04T01:04:24;24.80;;;14.30;;
5460;SDS011;2753;49.196;8.286;2023-01-04T01:06:50;20.20;;;14.07;;
5460;SDS011;2753;49.196;8.286;2023-01-04T01:09:16;19.93;;;12.37;;
5460;SDS011;2753;49.196;8.286;2023-01-04T01:11:42;18.43;;;13.83;;
5460;SDS011;2753;49.196;8.286;2023-01-04T01:14:11;20.43;;;12.60;;
5460;SDS011;2753;49.196;8.286;2023-01-04T01:16:43;21.23;;;14.07;;
5460;SDS011;2753;49.196;8.286;2023-01-04T01:19:09;18.00;;;12.87;;
5460;SDS011;2753;49.196;8.286;2023-01-04T01:21:35;23.30;;;12.13;;
5460;SDS011;2753;49.196;8.286;2023-01-04T01:24:02;20.43;;;13.90;;
5460;SDS011;2753;49.196;8.286;2023-01-04T01:26:28;20.00;;;12.30;;
5460;SDS011;2753;49.196;8.286;2023-01-04T01:28:54;19.73;;;13.30;;
5460;SDS011;2753;49.196;8.286;2023-01-04T01:31:23;23.07;;;12.30;;
5460;SDS011;2753;49.196;8.286;2023-01-04T01:33:51;19.47;;;12.97;;
5460;SDS011;2753;49.196;8.286;2023-01-04T01:36:19;24.00;;;12.80;;
5460;SDS011;2753;49.196;8.286;2023-01-04T01:38:46;20.40;;;11.60;;
5460;SDS011;2753;49.196;8.286;2023-01-04T01:41:15;23.60;;;12.93;;
5460;SDS011;2753;49.196;8.286;2023-01-04T01:43:54;21.73;;;13.30;;
5460;SDS011;2753;49.196;8.286;2023-01-04T01:46:43;24.27;;;14.83;;
5460;SDS011;2753;49.196;8.286;2023-01-04T01:49:11;22.20;;;12.50;;
5460;SDS011;2753;49.196;8.286;2023-01-04T01:51:46;19.07;;;11.83;;
5460;SDS011;2753;49.196;8.286;2023-01-04T01:54:13;23.70;;;12.07;;
5460;SDS011;2753;49.196;8.286;2023-01-04T01:56:45;22.87;;;12.17;;
5460;SDS011;2753;49.196;8.286;2023-01-04T01:59:13;20.87;;;12.37;;
5460;SDS011;2753;49.196;8.286;2023-01-04T02:01:40;20.90;;;10.30;;
5460;SDS011;2753;49.196;8.286;2023-01-04T02:04:07;19.00;;;11.23;;
5460;SDS011;2753;49.196;8.286;2023-01-04T02:06:38;17.37;;;11.17;;
5460;SDS011;2753;49.196;8.286;2023-01-04T02:09:06;18.80;;;11.60;;
5460;SDS011;2753;49.196;8.286;2023-01-04T02:11:32;12.73;;;10.23;;
5460;SDS011;2753;49.196;8.286;2023-01-04T02:13:57;18.60;;;12.00;;
5460;SDS011;2753;49.196;8.286;2023-01-04T02:16:52;14.60;;;10.47;;
5460;SDS011;2753;49.196;8.286;2023-01-04T02:25:23;19.60;;;10.67;;
5460;SDS011;2753;49.196;8.286;2023-01-04T02:46:26;16.03;;;10.90;;
5460;SDS011;2753;49.196;8.286;2023-01-04T02:48:59;20.00;;;10.00;;
5460;SDS011;2753;49.196;8.286;2023-01-04T02:51:45;12.17;;;9.33;;
5460;SDS011;2753;49.196;8.286;2023-01-04T02:54:15;13.97;;;9.30;;
5460;SDS011;2753;49.196;8.286;2023-01-04T03:10:46;12.70;;;7.90;;
5460;SDS011;2753;49.196;8.286;2023-01-04T03:16:03;9.93;;;7.13;;
5460;SDS011;2753;49.196;8.286;2023-01-04T03:18:39;11.20;;;7.90;;
5460;SDS011;2753;49.196;8.286;2023-01-04T03:21:08;10.07;;;7.07;;
5460;SDS011;2753;49.196;8.286;2023-01-04T03:23:37;16.20;;;8.60;;
5460;SDS011;2753;49.196;8.286;2023-01-04T03:26:27;20.03;;;9.03;;
5460;SDS011;2753;49.196;8.286;2023-01-04T03:29:20;15.00;;;9.90;;
5460;SDS011;2753;49.196;8.286;2023-01-04T03:32:31;14.10;;;10.53;;
5460;SDS011;2753;49.196;8.286;2023-01-04T03:35:26;19.03;;;11.60;;
5460;SDS011;2753;49.196;8.286;2023-01-04T03:41:03;29.67;;;13.37;;
5460;SDS011;2753;49.196;8.286;2023-01-04T03:44:01;21.93;;;11.67;;
5460;SDS011;2753;49.196;8.286;2023-01-04T03:47:02;19.37;;;12.90;;
5460;SDS011;2753;49.196;8.286;2023-01-04T03:52:51;21.43;;;15.43;;
5460;SDS011;2753;49.196;8.286;2023-01-04T03:55:19;27.17;;;14.70;;
5460;SDS011;2753;49.196;8.286;2023-01-04T03:57:45;19.93;;;12.90;;
5460;SDS011;2753;49.196;8.286;2023-01-04T04:00:13;25.30;;;14.00;;
5460;SDS011;2753;49.196;8.286;2023-01-04T04:02:41;28.70;;;14.83;;
5460;SDS011;2753;49.196;8.286;2023-01-04T04:05:10;27.57;;;13.70;;
5460;SDS011;2753;49.196;8.286;2023-01-04T04:08:00;31.30;;;13.07;;
5460;SDS011;2753;49.196;8.286;2023-01-04T04:10:45;30.57;;;15.70;;
5460;SDS011;2753;49.196;8.286;2023-01-04T04:13:11;34.90;;;16.87;;
5460;SDS011;2753;49.196;8.286;2023-01-04T04:15:36;32.13;;;20.13;;
5460;SDS011;2753;49.196;8.286;2023-01-04T04:18:02;32.50;;;16.57;;
5460;SDS011;2753;49.196;8.286;2023-01-04T04:20:27;31.17;;;17.47;;
5460;SDS011;2753;49.196;8.286;2023-01-04T04:22:53;29.57;;;15.53;;
5460;SDS011;2753;49.196;8.286;2023-01-04T04:25:19;33.73;;;15.43;;
5460;SDS011;2753;49.196;8.286;2023-01-04T04:27:44;30.63;;;15.80;;
5460;SDS011;2753;49.196;8.286;2023-01-04T04:30:10;36.77;;;17.83;;
5460;SDS011;2753;49.196;8.286;2023-01-04T04:32:36;36.03;;;18.03;;
5460;SDS011;2753;49.196;8.286;2023-01-04T04:35:02;37.17;;;18.13;;
5460;SDS011;2753;49.196;8.286;2023-01-04T04:37:28;34.87;;;16.43;;
5460;SDS011;2753;49.196;8.286;2023-01-04T04:39:56;33.43;;;18.03;;
5460;SDS011;2753;49.196;8.286;2023-01-04T04:42:22;39.20;;;18.00;;
5460;SDS011;2753;49.196;8.286;2023-01-04T04:44:47;31.50;;;16.87;;
5460;SDS011;2753;49.196;8.286;2023-01-04T04:47:13;33.93;;;17.40;;
5460;SDS011;2753;49.196;8.286;2023-01-04T04:49:39;31.87;;;16.40;;
5460;SDS011;2753;49.196;8.286;2023-01-04T04:52:06;33.87;;;16.00;;
5460;SDS011;2753;49.196;8.286;2023-01-04T04:54:31;30.03;;;16.20;;
5460;SDS011;2753;49.196;8.286;2023-01-04T04:56:57;36.07;;;17.43;;
5460;SDS011;2753;49.196;8.286;2023-01-04T04:59:22;35.30;;;17.13;;
5460;SDS011;2753;49.196;8.286;2023-01-04T05:01:48;31.13;;;16.70;;
5460;SDS011;2753;49.196;8.286;2023-01-04T05:04:14;34.07;;;15.93;;
5460;SDS011;2753;49.196;8.286;2023-01-04T05:06:45;36.70;;;17.60;;
5460;SDS011;2753;49.196;8.286;2023-01-04T05:09:12;30.37;;;16.43;;
5460;SDS011;2753;49.196;8.286;2023-01-04T05:11:38;28.07;;;15.60;;
5460;SDS011;2753;49.196;8.286;2023-01-04T05:14:23;31.27;;;16.50;;
5460;SDS011;2753;49.196;8.286;2023-01-04T05:16:48;33.10;;;16.40;;
5460;SDS011;2753;49.196;8.286;2023-01-04T05:19:14;30.70;;;18.03;;
5460;SDS011;2753;49.196;8.286;2023-01-04T05:21:40;34.50;;;17.90;;
5460;SDS011;2753;49.196;8.286;2023-01-04T05:24:06;36.03;;;18.83;;
5460;SDS011;2753;49.196;8.286;2023-01-04T05:26:36;38.90;;;18.73;;
5460;SDS011;2753;49.196;8.286;2023-01-04T05:29:02;32.23;;;16.77;;
5460;SDS011;2753;49.196;8.286;2023-01-04T05:31:27;28.50;;;16.60;;
5460;SDS011;2753;49.196;8.286;2023-01-04T05:33:53;35.10;;;17.60;;
5460;SDS011;2753;49.196;8.286;2023-01-04T05:36:19;35.03;;;17.53;;
5460;SDS011;2753;49.196;8.286;2023-01-04T05:38:45;29.93;;;16.87;;
5460;SDS011;2753;49.196;8.286;2023-01-04T05:41:10;29.20;;;16.03;;
5460;SDS011;2753;49.196;8.286;2023-01-04T05:43:55;33.13;;;17.00;;
5460;SDS011;2753;49.196;8.286;2023-01-04T05:46:20;29.70;;;16.60;;
5460;SDS011;2753;49.196;8.286;2023-01-04T05:48:46;29.77;;;15.70;;
5460;SDS011;2753;49.196;8.286;2023-01-04T05:51:12;26.57;;;15.70;;
5460;SDS011;2753;49.196;8.286;2023-01-04T05:53:37;28.70;;;15.13;;
5460;SDS011;2753;49.196;8.286;2023-01-04T05:56:03;28.17;;;15.80;;
5460;SDS011;2753;49.196;8.286;2023-01-04T05:58:29;29.93;;;17.17;;
5460;SDS011;2753;49.196;8.286;2023-01-04T06:00:55;26.27;;;15.30;;
5460;SDS011;2753;49.196;8.286;2023-01-04T06:03:21;24.73;;;14.57;;
5460;SDS011;2753;49.196;8.286;2023-01-04T06:05:49;28.37;;;16.13;;
5460;SDS011;2753;49.196;8.286;2023-01-04T06:08:15;30.60;;;17.40;;
5460;SDS011;2753;49.196;8.286;2023-01-04T06:10:41;28.57;;;16.53;;
5460;SDS011;2753;49.196;8.286;2023-01-04T06:13:07;30.97;;;16.57;;
5460;SDS011;2753;49.196;8.286;2023-01-04T06:15:33;31.30;;;17.07;;
5460;SDS011;2753;49.196;8.286;2023-01-04T06:17:58;35.67;;;17.60;;
5460;SDS011;2753;49.196;8.286;2023-01-04T06:20:24;29.00;;;16.83;;
5460;SDS011;2753;49.196;8.286;2023-01-04T06:22:50;29.20;;;16.17;;
5460;SDS011;2753;49.196;8.286;2023-01-04T06:25:15;28.87;;;16.37;;
5460;SDS011;2753;49.196;8.286;2023-01-04T06:27:41;27.53;;;15.30;;
5460;SDS011;2753;49.196;8.286;2023-01-04T06:30:07;25.40;;;14.50;;
5460;SDS011;2753;49.196;8.286;2023-01-04T06:32:33;24.83;;;13.90;;
5460;SDS011;2753;49.196;8.286;2023-01-04T06:34:59;22.20;;;13.17;;
5460;SDS011;2753;49.196;8.286;2023-01-04T06:37:25;21.60;;;13.10;;
5460;SDS011;2753;49.196;8.286;2023-01-04T06:39:50;24.37;;;14.03;;
5460;SDS011;2753;49.196;8.286;2023-01-04T06:42:17;29.57;;;14.10;;
5460;SDS011;2753;49.196;8.286;2023-01-04T06:45:01;24.07;;;11.30;;
5460;SDS011;2753;49.196;8.286;2023-01-04T06:47:26;22.33;;;11.97;;
5460;SDS011;2753;49.196;8.286;2023-01-04T06:49:52;20.17;;;12.20;;
5460;SDS011;2753;49.196;8.286;2023-01-04T06:52:18;19.40;;;12.43;;
5460;SDS011;2753;49.196;8.286;2023-01-04T06:54:44;23.50;;;11.53;;
5460;SDS011;2753;49.196;8.286;2023-01-04T06:57:09;21.40;;;10.00;;
5460;SDS011;2753;49.196;8.286;2023-01-04T06:59:35;19.30;;;9.80;;
5460;SDS011;2753;49.196;8.286;2023-01-04T07:02:01;22.13;;;10.17;;
5460;SDS011;2753;49.196;8.286;2023-01-04T07:04:27;16.60;;;9.23;;
5460;SDS011;2753;49.196;8.286;2023-01-04T07:06:52;16.97;;;9.53;;
5460;SDS011;2753;49.196;8.286;2023-01-04T07:09:18;18.27;;;9.80;;
5460;SDS011;2753;49.196;8.286;2023-01-04T07:11:44;13.20;;;8.80;;
5460;SDS011;2753;49.196;8.286;2023-01-04T07:14:09;20.53;;;10.47;;
5460;SDS011;2753;49.196;8.286;2023-01-04T07:16:35;20.40;;;10.97;;
5460;SDS011;2753;49.196;8.286;2023-01-04T07:19:01;14.40;;;8.70;;
5460;SDS011;2753;49.196;8.286;2023-01-04T07:21:29;20.90;;;12.03;;
5460;SDS011;2753;49.196;8.286;2023-01-04T07:23:59;16.27;;;9.70;;
5460;SDS011;2753;49.196;8.286;2023-01-04T07:26:26;14.10;;;9.40;;
5460;SDS011;2753;49.196;8.286;2023-01-04T07:28:52;15.23;;;8.30;;
5460;SDS011;2753;49.196;8.286;2023-01-04T07:31:36;17.80;;;8.87;;
5460;SDS011;2753;49.196;8.286;2023-01-04T07:34:02;9.37;;;6.70;;
5460;SDS011;2753;49.196;8.286;2023-01-04T07:36:28;11.10;;;6.97;;
5460;SDS011;2753;49.196;8.286;2023-01-04T07:38:53;11.53;;;7.50;;
5460;SDS011;2753;49.196;8.286;2023-01-04T07:41:19;9.63;;;5.70;;
5460;SDS011;2753;49.196;8.286;2023-01-04T07:43:45;7.50;;;5.17;;
5460;SDS011;2753;49.196;8.286;2023-01-04T07:46:11;7.47;;;5.37;;
5460;SDS011;2753;49.196;8.286;2023-01-04T07:48:37;8.23;;;5.87;;
5460;SDS011;2753;49.196;8.286;2023-01-04T07:51:03;6.10;;;4.60;;
5460;SDS011;2753;49.196;8.286;2023-01-04T07:53:30;6.67;;;4.67;;
5460;SDS011;2753;49.196;8.286;2023-01-04T07:55:57;11.17;;;4.30;;
5460;SDS011;2753;49.196;8.286;2023-01-04T07:58:24;6.23;;;3.90;;
5460;SDS011;2753;49.196;8.286;2023-01-04T08:00:50;7.57;;;5.00;;
5460;SDS011;2753;49.196;8.286;2023-01-04T08:03:16;5.80;;;3.83;;
5460;SDS011;2753;49.196;8.286;2023-01-04T08:05:42;6.73;;;3.40;;
5460;SDS011;2753;49.196;8.286;2023-01-04T08:08:07;8.37;;;4.40;;
5460;SDS011;2753;49.196;8.286;2023-01-04T08:10:33;4.20;;;3.53;;
5460;SDS011;2753;49.196;8.286;2023-01-04T08:13:00;5.20;;;3.10;;
5460;SDS011;2753;49.196;8.286;2023-01-04T08:15:26;3.63;;;2.40;;
5460;SDS011;2753;49.196;8.286;2023-01-04T08:17:51;3.03;;;1.50;;
5460;SDS011;2753;49.196;8.286;2023-01-04T08:20:17;1.60;;;1.50;;
5460;SDS011;2753;49.196;8.286;2023-01-04T08:22:43;5.67;;;3.83;;
5460;SDS011;2753;49.196;8.286;2023-01-04T08:25:09;1.90;;;1.67;;
5460;SDS011;2753;49.196;8.286;2023-01-04T08:27:35;3.40;;;2.40;;
5460;SDS011;2753;49.196;8.286;2023-01-04T08:30:00;2.27;;;1.70;;
5460;SDS011;2753;49.196;8.286;2023-01-04T08:32:26;5.93;;;2.57;;
5460;SDS011;2753;49.196;8.286;2023-01-04T08:34:52;4.83;;;1.67;;
5460;SDS011;2753;49.196;8.286;2023-01-04T08:37:18;1.83;;;1.40;;
5460;SDS011;2753;49.196;8.286;2023-01-04T08:39:44;1.70;;;1.60;;
5460;SDS011;2753;49.196;8.286;2023-01-04T08:42:10;2.30;;;1.27;;
5460;SDS011;2753;49.196;8.286;2023-01-04T08:44:44;3.17;;;1.40;;
5460;SDS011;2753;49.196;8.286;2023-01-04T08:47:10;2.30;;;1.50;;
5460;SDS011;2753;49.196;8.286;2023-01-04T08:49:35;1.83;;;1.60;;
5460;SDS011;2753;49.196;8.286;2023-01-04T08:52:01;5.10;;;2.37;;
5460;SDS011;2753;49.196;8.286;2023-01-04T08:54:29;4.43;;;1.57;;
5460;SDS011;2753;49.196;8.286;2023-01-04T08:56:54;2.53;;;2.33;;
5460;SDS011;2753;49.196;8.286;2023-01-04T08:59:20;3.00;;;1.80;;
5460;SDS011;2753;49.196;8.286;2023-01-04T09:01:46;1.47;;;1.10;;
5460;SDS011;2753;49.196;8.286;2023-01-04T09:04:11;3.10;;;1.83;;
5460;SDS011;2753;49.196;8.286;2023-01-04T09:06:37;2.87;;;1.47;;
5460;SDS011;2753;49.196;8.286;2023-01-04T09:09:04;3.60;;;2.27;;
5460;SDS011;2753;49.196;8.286;2023-01-04T09:11:29;4.07;;;1.80;;
5460;SDS011;2753;49.196;8.286;2023-01-04T09:13:56;1.57;;;1.47;;
5460;SDS011;2753;49.196;8.286;2023-01-04T09:16:23;2.80;;;1.70;;
5460;SDS011;2753;49.196;8.286;2023-01-04T09:18:49;4.13;;;1.37;;
5460;SDS011;2753;49.196;8.286;2023-01-04T09:21:19;2.00;;;1.80;;
5460;SDS011;2753;49.196;8.286;2023-01-04T09:23:46;7.00;;;1.60;;
5460;SDS011;2753;49.196;8.286;2023-01-04T09:26:14;2.73;;;1.63;;
5460;SDS011;2753;49.196;8.286;2023-01-04T09:28:46;3.93;;;1.93;;
5460;SDS011;2753;49.196;8.286;2023-01-04T09:31:27;3.97;;;1.80;;
5460;SDS011;2753;49.196;8.286;2023-01-04T09:33:54;2.10;;;1.80;;
5460;SDS011;2753;49.196;8.286;2023-01-04T09:36:21;2.23;;;2.00;;
5460;SDS011;2753;49.196;8.286;2023-01-04T09:38:48;7.13;;;2.47;;
5460;SDS011;2753;49.196;8.286;2023-01-04T09:43:52;4.33;;;2.00;;
5460;SDS011;2753;49.196;8.286;2023-01-04T09:49:56;4.93;;;2.33;;
5460;SDS011;2753;49.196;8.286;2023-01-04T09:52:04;5.87;;;2.03;;
5460;SDS011;2753;49.196;8.286;2023-01-04T09:54:44;3.37;;;1.87;;
5460;SDS011;2753;49.196;8.286;2023-01-04T09:57:32;2.10;;;1.90;;
5460;SDS011;2753;49.196;8.286;2023-01-04T10:02:46;10.93;;;2.70;;
5460;SDS011;2753;49.196;8.286;2023-01-04T10:05:27;5.13;;;1.80;;
5460;SDS011;2753;49.196;8.286;2023-01-04T10:07:55;3.53;;;2.10;;
5460;SDS011;2753;49.196;8.286;2023-01-04T10:13:23;3.43;;;1.37;;
5460;SDS011;2753;49.196;8.286;2023-01-04T10:21:46;1.80;;;1.30;;
5460;SDS011;2753;49.196;8.286;2023-01-04T10:36:18;3.00;;;1.90;;
5460;SDS011;2753;49.196;8.286;2023-01-04T10:38:52;4.40;;;1.70;;
5460;SDS011;2753;49.196;8.286;2023-01-04T10:41:41;8.63;;;1.87;;
5460;SDS011;2753;49.196;8.286;2023-01-04T10:44:17;2.97;;;1.97;;
5460;SDS011;2753;49.196;8.286;2023-01-04T10:47:15;4.03;;;1.90;;
5460;SDS011;2753;49.196;8.286;2023-01-04T10:53:01;5.17;;;3.00;;
5460;SDS011;2753;49.196;8.286;2023-01-04T10:55:15;4.00;;;3.00;;
5460;SDS011;2753;49.196;8.286;2023-01-04T10:57:51;6.70;;;3.37;;
5460;SDS011;2753;49.196;8.286;2023-01-04T11:00:30;5.57;;;1.93;;
5460;SDS011;2753;49.196;8.286;2023-01-04T11:03:15;1.70;;;1.60;;
5460;SDS011;2753;49.196;8.286;2023-01-04T11:05:59;2.40;;;2.13;;
5460;SDS011;2753;49.196;8.286;2023-01-04T11:08:45;5.63;;;3.23;;
5460;SDS011;2753;49.196;8.286;2023-01-04T11:11:18;1.83;;;1.73;;
5460;SDS011;2753;49.196;8.286;2023-01-04T11:13:56;6.10;;;2.20;;
5460;SDS011;2753;49.196;8.286;2023-01-04T11:16:27;4.10;;;2.07;;
5460;SDS011;2753;49.196;8.286;2023-01-04T11:18:54;2.23;;;2.00;;
5460;SDS011;2753;49.196;8.286;2023-01-04T11:21:20;7.23;;;2.20;;
5460;SDS011;2753;49.196;8.286;2023-01-04T11:23:51;3.43;;;1.60;;
5460;SDS011;2753;49.196;8.286;2023-01-04T11:26:19;2.50;;;2.30;;
5460;SDS011;2753;49.196;8.286;2023-01-04T11:28:55;2.50;;;2.20;;
5460;SDS011;2753;49.196;8.286;2023-01-04T11:39:06;2.20;;;2.00;;
5460;SDS011;2753;49.196;8.286;2023-01-04T11:42:04;2.03;;;1.93;;
5460;SDS011;2753;49.196;8.286;2023-01-04T11:44:33;1.60;;;1.50;;
5460;SDS011;2753;49.196;8.286;2023-01-04T11:47:19;3.43;;;1.77;;
5460;SDS011;2753;49.196;8.286;2023-01-04T11:49:46;3.73;;;2.13;;
5460;SDS011;2753;49.196;8.286;2023-01-04T11:52:26;3.40;;;2.17;;
5460;SDS011;2753;49.196;8.286;2023-01-04T11:55:15;5.23;;;2.10;;
5460;SDS011;2753;49.196;8.286;2023-01-04T11:58:11;2.87;;;1.70;;
5460;SDS011;2753;49.196;8.286;2023-01-04T12:00:36;5.97;;;1.90;;
5460;SDS011;2753;49.196;8.286;2023-01-04T12:03:10;3.63;;;2.00;;
5460;SDS011;2753;49.196;8.286;2023-01-04T12:05:40;3.43;;;2.53;;
5460;SDS011;2753;49.196;8.286;2023-01-04T12:08:08;5.03;;;1.67;;
5460;SDS011;2753;49.196;8.286;2023-01-04T12:10:57;3.77;;;1.47;;
5460;SDS011;2753;49.196;8.286;2023-01-04T12:13:24;1.43;;;1.33;;
5460;SDS011;2753;49.196;8.286;2023-01-04T12:18:42;4.97;;;1.40;;
5460;SDS011;2753;49.196;8.286;2023-01-04T12:21:22;6.43;;;1.43;;
5460;SDS011;2753;49.196;8.286;2023-01-04T12:23:50;3.17;;;1.73;;
5460;SDS011;2753;49.196;8.286;2023-01-04T12:26:17;3.00;;;1.10;;
5460;SDS011;2753;49.196;8.286;2023-01-04T12:28:48;3.70;;;1.10;;
5460;SDS011;2753;49.196;8.286;2023-01-04T12:33:44;3.00;;;1.90;;
5460;SDS011;2753;49.196;8.286;2023-01-04T12:36:13;2.43;;;1.30;;
5460;SDS011;2753;49.196;8.286;2023-01-04T12:47:03;1.87;;;1.33;;
5460;SDS011;2753;49.196;8.286;2023-01-04T12:57:56;7.00;;;3.27;;
5460;SDS011;2753;49.196;8.286;2023-01-04T13:08:14;1.40;;;1.30;;
5460;SDS011;2753;49.196;8.286;2023-01-04T13:10:40;1.17;;;0.80;;
5460;SDS011;2753;49.196;8.286;2023-01-04T13:13:25;4.90;;;2.30;;
5460;SDS011;2753;49.196;8.286;2023-01-04T13:18:49;2.17;;;1.97;;
5460;SDS011;2753;49.196;8.286;2023-01-04T13:23:53;1.87;;;1.10;;
5460;SDS011;2753;49.196;8.286;2023-01-04T13:31:53;2.80;;;1.03;;
5460;SDS011;2753;49.196;8.286;2023-01-04T13:37:33;1.50;;;1.50;;
5460;SDS011;2753;49.196;8.286;2023-01-04T13:46:10;2.67;;;1.10;;
5460;SDS011;2753;49.196;8.286;2023-01-04T13:48:38;8.23;;;1.90;;
5460;SDS011;2753;49.196;8.286;2023-01-04T13:53:56;4.53;;;1.53;;
5460;SDS011;2753;49.196;8.286;2023-01-04T13:56:32;1.63;;;1.43;;
5460;SDS011;2753;49.196;8.286;2023-01-04T13:58:59;3.70;;;2.10;;
5460;SDS011;2753;49.196;8.286;2023-01-04T14:01:25;2.20;;;1.33;;
5460;SDS011;2753;49.196;8.286;2023-01-04T14:03:59;2.63;;;1.30;;
5460;SDS011;2753;49.196;8.286;2023-01-04T14:06:28;1.20;;;1.20;;
5460;SDS011;2753;49.196;8.286;2023-01-04T14:11:27;3.03;;;1.27;;
5460;SDS011;2753;49.196;8.286;2023-01-04T14:16:42;4.83;;;1.60;;
5460;SDS011;2753;49.196;8.286;2023-01-04T14:24:43;2.50;;;1.67;;
5460;SDS011;2753;49.196;8.286;2023-01-04T14:33:01;4.20;;;2.20;;
5460;SDS011;2753;49.196;8.286;2023-01-04T14:35:39;2.40;;;1.87;;
5460;SDS011;2753;49.196;8.286;2023-01-04T14:38:05;2.20;;;1.90;;
5460;SDS011;2753;49.196;8.286;2023-01-04T14:40:39;7.87;;;2.50;;
5460;SDS011;2753;49.196;8.286;2023-01-04T14:45:59;7.93;;;2.77;;
5460;SDS011;2753;49.196;8.286;2023-01-04T14:48:26;6.37;;;3.10;;
5460;SDS011;2753;49.196;8.286;2023-01-04T14:50:53;7.77;;;2.90;;
5460;SDS011;2753;49.196;8.286;2023-01-04T14:53:18;12.50;;;3.03;;
5460;SDS011;2753;49.196;8.286;2023-01-04T14:55:45;3.83;;;2.37;;
5460;SDS011;2753;49.196;8.286;2023-01-04T14:58:11;4.03;;;2.90;;
5460;SDS011;2753;49.196;8.286;2023-01-04T15:00:37;7.83;;;3.13;;
5460;SDS011;2753;49.196;8.286;2023-01-04T15:03:02;9.10;;;3.47;;
5460;SDS011;2753;49.196;8.286;2023-01-04T15:05:28;4.30;;;2.20;;
5460;SDS011;2753;49.196;8.286;2023-01-04T15:07:55;3.80;;;2.50;;
5460;SDS011;2753;49.196;8.286;2023-01-04T15:10:22;1.87;;;1.77;;
5460;SDS011;2753;49.196;8.286;2023-01-04T15:12:49;3.37;;;1.73;;
5460;SDS011;2753;49.196;8.286;2023-01-04T15:15:15;4.37;;;2.40;;
5460;SDS011;2753;49.196;8.286;2023-01-04T15:17:41;3.20;;;2.20;;
5460;SDS011;2753;49.196;8.286;2023-01-04T15:20:07;5.10;;;1.50;;
5460;SDS011;2753;49.196;8.286;2023-01-04T15:22:33;2.90;;;1.20;;
5460;SDS011;2753;49.196;8.286;2023-01-04T15:24:59;2.10;;;1.37;;
5460;SDS011;2753;49.196;8.286;2023-01-04T15:27:24;2.20;;;1.10;;
5460;SDS011;2753;49.196;8.286;2023-01-04T15:29:50;1.17;;;1.10;;
5460;SDS011;2753;49.196;8.286;2023-01-04T15:32:16;4.13;;;1.37;;
5460;SDS011;2753;49.196;8.286;2023-01-04T15:34:41;1.77;;;1.67;;
5460;SDS011;2753;49.196;8.286;2023-01-04T15:37:07;3.03;;;1.37;;
5460;SDS011;2753;49.196;8.286;2023-01-04T15:39:33;2.63;;;1.20;;
5460;SDS011;2753;49.196;8.286;2023-01-04T15:41:59;2.97;;;1.60;;
5460;SDS011;2753;49.196;8.286;2023-01-04T15:44:43;3.40;;;2.10;;
5460;SDS011;2753;49.196;8.286;2023-01-04T15:47:09;4.93;;;1.43;;
5460;SDS011;2753;49.196;8.286;2023-01-04T15:49:35;5.73;;;1.20;;
5460;SDS011;2753;49.196;8.286;2023-01-04T15:52:00;1.87;;;1.13;;
5460;SDS011;2753;49.196;8.286;2023-01-04T15:54:27;1.67;;;1.10;;
5460;SDS011;2753;49.196;8.286;2023-01-04T16:00:15;1.60;;;1.50;;
5460;SDS011;2753;49.196;8.286;2023-01-04T16:02:41;1.43;;;1.33;;
5460;SDS011;2753;49.196;8.286;2023-01-04T16:05:08;3.90;;;1.33;;
5460;SDS011;2753;49.196;8.286;2023-01-04T16:07:34;2.57;;;1.90;;
5460;SDS011;2753;49.196;8.286;2023-01-04T16:09:59;7.67;;;2.67;;
5460;SDS011;2753;49.196;8.286;2023-01-04T16:12:25;5.20;;;2.03;;
5460;SDS011;2753;49.196;8.286;2023-01-04T16:15:14;2.70;;;1.87;;
5460;SDS011;2753;49.196;8.286;2023-01-04T16:17:44;3.10;;;1.57;;
5460;SDS011;2753;49.196;8.286;2023-01-04T16:20:11;2.27;;;2.00;;
5460;SDS011;2753;49.196;8.286;2023-01-04T16:22:38;4.03;;;1.00;;
5460;SDS011;2753;49.196;8.286;2023-01-04T16:25:05;3.27;;;1.67;;
5460;SDS011;2753;49.196;8.286;2023-01-04T16:27:32;4.33;;;1.60;;
5460;SDS011;2753;49.196;8.286;2023-01-04T16:29:59;3.50;;;1.80;;
5460;SDS011;2753;49.196;8.286;2023-01-04T16:32:26;3.23;;;1.67;;
5460;SDS011;2753;49.196;8.286;2023-01-04T16:34:51;1.90;;;1.40;;
5460;SDS011;2753;49.196;8.286;2023-01-04T16:37:17;3.23;;;1.43;;
5460;SDS011;2753;49.196;8.286;2023-01-04T16:39:43;6.53;;;1.50;;
5460;SDS011;2753;49.196;8.286;2023-01-04T16:42:09;5.10;;;2.13;;
5460;SDS011;2753;49.196;8.286;2023-01-04T16:44:36;12.40;;;2.50;;
5460;SDS011;2753;49.196;8.286;2023-01-04T16:47:02;3.80;;;2.37;;
5460;SDS011;2753;49.196;8.286;2023-01-04T16:49:28;4.33;;;2.37;;
5460;SDS011;2753;49.196;8.286;2023-01-04T16:51:53;12.10;;;3.10;;
5460;SDS011;2753;49.196;8.286;2023-01-04T16:54:19;2.03;;;1.93;;
5460;SDS011;2753;49.196;8.286;2023-01-04T16:56:45;1.40;;;1.30;;
5460;SDS011;2753;49.196;8.286;2023-01-04T16:59:13;4.47;;;1.80;;
5460;SDS011;2753;49.196;8.286;2023-01-04T17:01:42;4.37;;;1.80;;
5460;SDS011;2753;49.196;8.286;2023-01-04T17:04:08;1.60;;;1.50;;
5460;SDS011;2753;49.196;8.286;2023-01-04T17:06:36;3.80;;;2.10;;
5460;SDS011;2753;49.196;8.286;2023-01-04T17:09:04;4.27;;;2.23;;
5460;SDS011;2753;49.196;8.286;2023-01-04T17:11:32;3.87;;;2.20;;
5460;SDS011;2753;49.196;8.286;2023-01-04T17:14:01;3.00;;;2.60;;
5460;SDS011;2753;49.196;8.286;2023-01-04T17:16:27;2.93;;;2.30;;
5460;SDS011;2753;49.196;8.286;2023-01-04T17:18:54;3.20;;;2.40;;
5460;SDS011;2753;49.196;8.286;2023-01-04T17:21:23;4.33;;;2.17;;
5460;SDS011;2753;49.196;8.286;2023-01-04T17:23:51;2.10;;;1.97;;
5460;SDS011;2753;49.196;8.286;2023-01-04T17:26:20;6.93;;;2.00;;
5460;SDS011;2753;49.196;8.286;2023-01-04T17:28:47;1.90;;;1.60;;
5460;SDS011;2753;49.196;8.286;2023-01-04T17:31:15;3.37;;;1.77;;
5460;SDS011;2753;49.196;8.286;2023-01-04T17:33:46;1.80;;;1.70;;
5460;SDS011;2753;49.196;8.286;2023-01-04T17:36:13;2.80;;;1.70;;
5460;SDS011;2753;49.196;8.286;2023-01-04T17:38:41;1.80;;;1.70;;
5460;SDS011;2753;49.196;8.286;2023-01-04T17:41:09;5.13;;;1.50;;
5460;SDS011;2753;49.196;8.286;2023-01-04T17:43:39;4.23;;;2.23;;
5460;SDS011;2753;49.196;8.286;2023-01-04T17:46:07;4.67;;;2.43;;
5460;SDS011;2753;49.196;8.286;2023-01-04T17:48:34;2.70;;;2.07;;
5460;SDS011;2753;49.196;8.286;2023-01-04T17:51:08;3.77;;;1.90;;
5460;SDS011;2753;49.196;8.286;2023-01-04T17:53:34;1.73;;;1.63;;
5460;SDS011;2753;49.196;8.286;2023-01-04T17:56:01;1.63;;;1.50;;
5460;SDS011;2753;49.196;8.286;2023-01-04T17:58:28;7.53;;;3.10;;